Raynham Center, MA (02768)

3:37 PM EST on November 24, 2014 (GMT -0500)
Taunton Ma | Change Station
CLOSE
Current Station
Personal Weather Station
Location: Taunton, MA
Elevation: 81 ft
Nearby Weather Stations

Elev 81 ft 41.89 °N, 71.06 °W | Updated 0 second ago

Overcast
Overcast
62.6 °F
Feels Like 62.6 °F
N
4.5
Wind Variable Wind from South
Gusts 6.0 mph

Today
High -- | Low -- °F
--% Chance of Precip.
Yesterday
High -- | Low -- °F
Precip. -- in
6:44 AM 4:16 PM
Waxing Crescent, 7% visible
Pressure 29.65 in
Visibility 8.0 miles
Clouds Overcast 1200 ft
Dew Point 47 °F
Humidity 57%
Rainfall 0.60 in
Snow Depth Not available.
UV 0 out of 12
Pollen .10 out of 12
Air Quality Not available.
Flu Activity Not available.
METAR KTAN 241952Z AUTO 20013G26KT 150V230 8SM OVC012 19/16 A2965 RMK AO2 PK WND 19029/1914 SLP040 T01890161

More Conditions Fewer Conditions

Pressure 29.65 in
Visibility 8.0 miles
Clouds Overcast 1200 ft
Dew Point 47 °F
Humidity 57%
Rainfall 0.60 in
Snow Depth Not available.
UV 0 out of 12
Pollen .10 out of 12
Air Quality Not available.
Flu Activity Not available.
METAR KTAN 241952Z AUTO 20013G26KT 150V230 8SM OVC012 19/16 A2965 RMK AO2 PK WND 19029/1914 SLP040 T01890161

More Conditions Fewer Conditions

10-Day Weather Forecast

Almanac

Astronomy

Nov. 24, 2014 Rise Set
Actual Time
Civil Twilight
Nautical Twilight
Astronomical Twilight
Moon
Length of Visible Light
Length of Day
Tomorrow will be .
, % of the Moon is Illuminated

Today's Extremes

State Highs State Lows

Community

WunderPhotos

Upload Photos

1,773,406 photos uploaded!

WunderBlogs® & News

Nearby

Air Quality

  Air Quality AQ Index Pollutant
Not available.

Snow Depth

Station Depth Elevation

Earthquake Activity

City Distance Mag. Time & Date
Minimum magnitude displayed is 2.5.

Coastal Water Temperatures

Place Temperature

Nearby Weather Stations